Terminal Aerodrome Forecast
Issued by NWS

Home | Current Version | Previous Version | Text Only | Print | Product List | Glossary On
Versions: 1 2 3 4 5 6 7 8 9 10 11 12 13
000
FTUS46 KPDT 271100
TAFBDN
TAF
KBDN 271124Z 2712/2812 18009KT P6SM BKN150
     FM271800 20008KT P6SM SCT080 OVC120
     FM272100 20010KT P6SM VCSH BKN040 OVC060
     FM280000 23011KT P6SM -SHRA BKN030 OVC050
     FM280600 26013KT P6SM BKN030=

USA.gov is the U.S. government's official web portal to all federal, state and local government web resources and services.